Time;durP1;ratioP1;P1;durP2;ratioP2;P2;SDS_P1;SDS_P2;PMS_P1;PMS_P2;Temp;Humidity;BMP_temperature;BMP_pressure;BME280_temperature;BME280_humidity;BME280_pressure;Samples;Min_cycle;Max_cycle;Signal;HPM_P1;HPM_P2
2021/01/26 00:01:20;;;;;;;13.73;10.38;;;5.70;92.90;;;;;;5062983;28;20032;-61
2021/01/26 00:03:46;;;;;;;14.27;9.15;;;5.90;93.20;;;;;;5060454;28;20036;-61
2021/01/26 00:06:12;;;;;;;12.10;9.02;;;6.20;93.40;;;;;;5071264;28;20036;-61
2021/01/26 00:08:38;;;;;;;12.32;9.27;;;6.40;93.50;;;;;;5071679;28;20021;-60
2021/01/26 00:11:04;;;;;;;8.30;7.43;;;6.70;93.40;;;;;;5067568;28;20021;-61
2021/01/26 00:13:31;;;;;;;10.30;7.60;;;6.90;93.30;;;;;;5070053;28;20043;-61
2021/01/26 00:15:57;;;;;;;9.82;6.60;;;7.10;93.20;;;;;;5062709;28;20032;-61
2021/01/26 00:18:23;;;;;;;7.35;6.28;;;7.30;93.00;;;;;;5061772;28;20020;-61
2021/01/26 00:20:48;;;;;;;7.10;6.40;;;7.40;92.90;;;;;;5070225;28;20115;-61
2021/01/26 00:23:15;;;;;;;7.60;6.03;;;7.60;92.80;;;;;;5064161;28;20460;-61
2021/01/26 00:25:42;;;;;;;7.47;5.30;;;7.70;92.70;;;;;;5073945;28;20021;-61
2021/01/26 00:28:10;;;;;;;6.80;5.25;;;7.80;92.60;;;;;;5070011;28;20025;-61
2021/01/26 00:30:37;;;;;;;7.50;6.15;;;7.90;92.40;;;;;;5062287;28;20032;-61
2021/01/26 00:33:07;;;;;;;8.20;6.28;;;8.10;92.40;;;;;;5063968;28;20104;-61
2021/01/26 00:35:33;;;;;;;12.70;8.65;;;8.20;92.50;;;;;;5068353;28;20391;-61
2021/01/26 00:38:01;;;;;;;19.50;9.90;;;8.30;92.20;;;;;;5062775;28;20025;-61
2021/01/26 00:40:28;;;;;;;14.13;8.35;;;8.30;92.00;;;;;;5068323;28;20036;-59
2021/01/26 00:42:54;;;;;;;10.98;7.32;;;8.40;91.50;;;;;;5063422;28;20051;-60
2021/01/26 00:45:21;;;;;;;7.15;6.05;;;8.40;91.30;;;;;;5072969;28;20054;-61
2021/01/26 00:47:47;;;;;;;6.70;5.10;;;8.40;91.30;;;;;;5069615;28;20063;-61
2021/01/26 00:50:13;;;;;;;5.30;4.80;;;8.40;90.80;;;;;;5072682;28;20056;-61
2021/01/26 00:52:39;;;;;;;5.00;4.45;;;8.40;90.70;;;;;;5063873;28;20020;-61
2021/01/26 00:55:07;;;;;;;5.40;4.30;;;8.40;90.50;;;;;;5057605;28;20032;-61
2021/01/26 00:57:32;;;;;;;4.07;3.63;;;8.40;90.20;;;;;;5058554;28;20039;-61
2021/01/26 00:59:58;;;;;;;5.03;4.53;;;8.30;90.10;;;;;;5062886;28;20120;-61
2021/01/26 01:02:24;;;;;;;5.10;4.57;;;8.30;89.80;;;;;;5064794;28;20028;-61
2021/01/26 01:04:50;;;;;;;5.07;4.57;;;8.20;89.60;;;;;;5059125;28;20027;-61
2021/01/26 01:07:17;;;;;;;4.70;3.78;;;8.10;89.50;;;;;;5072040;28;20044;-61
2021/01/26 01:09:44;;;;;;;5.95;5.03;;;8.10;89.60;;;;;;5068542;28;20041;-61
2021/01/26 01:12:10;;;;;;;6.05;4.70;;;8.00;89.20;;;;;;5070859;28;20041;-61
2021/01/26 01:14:41;;;;;;;5.22;4.72;;;8.00;88.50;;;;;;5068272;28;20032;-61
2021/01/26 01:17:07;;;;;;;5.22;4.72;;;7.90;88.60;;;;;;5063539;28;20988;-61
2021/01/26 01:19:33;;;;;;;5.72;4.78;;;7.80;88.50;;;;;;5064643;28;20074;-61
2021/01/26 01:21:59;;;;;;;4.95;4.45;;;7.80;88.40;;;;;;5068310;28;20028;-61
2021/01/26 01:24:25;;;;;;;5.25;4.75;;;7.70;88.30;;;;;;5064983;28;20017;-61
2021/01/26 01:26:50;;;;;;;5.25;4.75;;;7.60;88.00;;;;;;5058472;28;20029;-61
2021/01/26 01:29:16;;;;;;;5.15;4.65;;;7.60;87.80;;;;;;5072133;28;20032;-61
2021/01/26 01:31:42;;;;;;;5.25;4.70;;;7.50;87.50;;;;;;5068116;28;20091;-61
2021/01/26 01:34:08;;;;;;;5.40;4.75;;;7.40;86.90;;;;;;5066238;28;20044;-61
2021/01/26 01:36:35;;;;;;;5.22;4.70;;;7.30;86.50;;;;;;5062467;28;20033;-61
2021/01/26 01:39:03;;;;;;;5.03;4.50;;;7.10;86.20;;;;;;5055967;28;20023;-61
2021/01/26 01:41:30;;;;;;;5.03;4.00;;;7.10;86.20;;;;;;5065932;28;20028;-61
2021/01/26 01:43:56;;;;;;;4.55;3.85;;;6.90;85.90;;;;;;5070842;28;20136;-61
2021/01/26 01:46:23;;;;;;;4.32;3.88;;;6.90;85.90;;;;;;5066367;28;20021;-61
2021/01/26 01:48:49;;;;;;;4.53;3.88;;;6.80;85.70;;;;;;5057557;28;20027;-61
2021/01/26 01:51:20;;;;;;;4.95;4.25;;;6.70;85.90;;;;;;5069064;28;20028;-61
2021/01/26 01:54:25;;;;;;;4.50;3.85;;;6.70;86.00;;;;;;5063633;28;20079;-61
2021/01/26 01:57:15;;;;;;;4.38;3.88;;;6.70;85.90;;;;;;5018757;28;20053;-61
2021/01/26 01:59:45;;;;;;;3.83;3.42;;;6.70;85.60;;;;;;5070241;28;20483;-61
2021/01/26 02:02:13;;;;;;;6.13;4.40;;;6.70;85.70;;;;;;5067016;28;20020;-61
2021/01/26 02:04:39;;;;;;;4.25;3.85;;;6.70;85.60;;;;;;5067585;28;20369;-61
2021/01/26 02:07:06;;;;;;;4.10;3.70;;;6.70;85.70;;;;;;5071514;28;20024;-61
2021/01/26 02:09:36;;;;;;;3.80;3.42;;;6.70;85.40;;;;;;5067049;28;20041;-61
2021/01/26 02:12:03;;;;;;;4.20;3.58;;;6.70;85.20;;;;;;5057479;28;20069;-61
2021/01/26 02:14:50;;;;;;;5.28;4.03;;;6.60;84.50;;;;;;5058313;28;20044;-61
2021/01/26 02:17:34;;;;;;;4.28;3.67;;;6.50;84.40;;;;;;5065102;28;20017;-61
2021/01/26 02:20:11;;;;;;;4.90;3.85;;;6.50;84.80;;;;;;5058195;28;20099;-60
2021/01/26 02:23:12;;;;;;;5.15;4.07;;;6.50;84.60;;;;;;5067799;28;20028;-61
2021/01/26 02:26:06;;;;;;;3.97;3.55;;;6.50;84.80;;;;;;5053548;28;20744;-61
2021/01/26 02:28:38;;;;;;;3.95;3.50;;;6.50;84.50;;;;;;5061860;28;20053;-60
2021/01/26 02:31:43;;;;;;;4.13;3.60;;;6.40;84.20;;;;;;5068483;28;20029;-61
2021/01/26 02:34:48;;;;;;;4.53;3.92;;;6.40;83.80;;;;;;5068247;28;20352;-61
2021/01/26 02:37:55;;;;;;;4.80;3.78;;;6.30;83.50;;;;;;5071908;28;20098;-61
2021/01/26 02:40:33;;;;;;;4.40;3.72;;;6.30;84.10;;;;;;5058741;28;20085;-61
2021/01/26 02:43:02;;;;;;;5.15;3.90;;;6.20;84.20;;;;;;5064277;28;20062;-61
2021/01/26 02:45:31;;;;;;;4.78;3.90;;;6.20;83.90;;;;;;5066819;28;20016;-61
2021/01/26 02:48:17;;;;;;;6.35;4.63;;;6.20;84.00;;;;;;5069710;28;20032;-61
2021/01/26 02:50:49;;;;;;;4.97;4.00;;;6.20;83.60;;;;;;5066366;28;20545;-59
2021/01/26 02:53:26;;;;;;;4.85;4.00;;;6.20;83.80;;;;;;5067352;28;20025;-61
2021/01/26 02:56:01;;;;;;;5.38;4.30;;;6.20;83.80;;;;;;5069747;28;20068;-61
2021/01/26 02:58:44;;;;;;;5.68;4.50;;;6.20;83.50;;;;;;5065855;28;20028;-61
2021/01/26 03:01:12;;;;;;;5.57;4.55;;;6.20;83.40;;;;;;5059572;28;20074;-61
2021/01/26 03:03:51;;;;;;;6.32;4.60;;;6.20;83.40;;;;;;5063448;28;20392;-61
2021/01/26 03:06:28;;;;;;;6.47;4.82;;;6.20;83.60;;;;;;5063829;28;20027;-61
2021/01/26 03:09:03;;;;;;;5.13;4.63;;;6.20;83.60;;;;;;5063402;28;20447;-61
2021/01/26 03:11:44;;;;;;;6.68;4.90;;;6.20;83.30;;;;;;5067595;28;20055;-61
2021/01/26 03:14:51;;;;;;;5.72;4.18;;;6.20;83.30;;;;;;5065331;28;20102;-61
2021/01/26 03:18:02;;;;;;;6.13;4.70;;;6.30;83.10;;;;;;5058560;28;20043;-61
2021/01/26 03:20:35;;;;;;;6.43;4.70;;;6.30;82.70;;;;;;5019581;28;20026;-61
2021/01/26 03:23:06;;;;;;;6.10;5.03;;;6.30;82.60;;;;;;5057614;28;20036;-61
2021/01/26 03:25:36;;;;;;;6.82;5.07;;;6.20;82.10;;;;;;5065268;28;20032;-61
2021/01/26 03:28:06;;;;;;;7.88;6.03;;;6.20;81.80;;;;;;5069601;28;20563;-61
2021/01/26 03:30:35;;;;;;;7.90;5.85;;;6.20;82.00;;;;;;5074816;28;20021;-61
2021/01/26 03:33:07;;;;;;;7.28;5.68;;;6.20;82.10;;;;;;5070171;28;20104;-60
2021/01/26 03:35:33;;;;;;;8.32;6.32;;;6.20;81.80;;;;;;5069976;28;20474;-61
2021/01/26 03:38:06;;;;;;;6.75;5.25;;;6.20;81.60;;;;;;5062153;28;20071;-61
2021/01/26 03:40:31;;;;;;;7.80;5.80;;;6.20;81.30;;;;;;5071123;28;20025;-61
2021/01/26 03:42:57;;;;;;;8.00;5.93;;;6.10;81.10;;;;;;5066703;28;20491;-61
2021/01/26 03:45:23;;;;;;;8.15;6.10;;;6.10;81.20;;;;;;5071619;28;20025;-61
2021/01/26 03:48:14;;;;;;;8.80;6.35;;;6.10;81.30;;;;;;5068092;28;20060;-60
2021/01/26 03:51:00;;;;;;;9.63;7.00;;;6.10;81.20;;;;;;5070358;28;20039;-61
2021/01/26 03:53:52;;;;;;;9.05;6.93;;;6.10;80.50;;;;;;5071777;28;20261;-61
2021/01/26 03:56:26;;;;;;;9.02;6.50;;;6.00;80.10;;;;;;5072525;28;20520;-61
2021/01/26 03:58:55;;;;;;;9.45;7.28;;;5.90;80.50;;;;;;5067614;28;20074;-61
2021/01/26 04:01:27;;;;;;;9.32;6.95;;;5.90;80.50;;;;;;5063828;28;20017;-61
2021/01/26 04:04:17;;;;;;;9.15;7.18;;;5.90;80.60;;;;;;5064374;28;20032;-61
2021/01/26 04:06:53;;;;;;;9.75;7.18;;;5.90;80.30;;;;;;5071235;28;20024;-61
2021/01/26 04:09:23;;;;;;;10.90;8.35;;;5.90;80.20;;;;;;5058912;28;20393;-61
2021/01/26 04:12:15;;;;;;;11.02;7.85;;;5.90;80.50;;;;;;5068003;28;20081;-61
2021/01/26 04:14:53;;;;;;;10.68;7.68;;;6.00;80.30;;;;;;5064237;28;20782;-61
2021/01/26 04:17:27;;;;;;;10.68;7.63;;;6.00;79.80;;;;;;5063647;28;20033;-61
2021/01/26 04:20:17;;;;;;;9.85;7.38;;;6.00;79.70;;;;;;5071867;28;20472;-61
2021/01/26 04:22:44;;;;;;;10.82;7.95;;;6.10;79.30;;;;;;5069174;28;20028;-61
2021/01/26 04:25:36;;;;;;;12.73;8.23;;;6.00;79.10;;;;;;5066078;28;20400;-62
2021/01/26 04:28:05;;;;;;;10.35;8.30;;;6.00;78.60;;;;;;5066368;28;20012;-62
2021/01/26 04:30:31;;;;;;;13.57;10.07;;;5.90;78.20;;;;;;5063139;28;20104;-62
2021/01/26 04:33:09;;;;;;;13.77;9.35;;;5.90;78.70;;;;;;5067727;28;20051;-62
2021/01/26 04:35:35;;;;;;;11.90;8.52;;;5.80;78.70;;;;;;5063171;28;20024;-62
2021/01/26 04:38:02;;;;;;;14.68;9.23;;;5.80;78.60;;;;;;5063490;28;20465;-61
2021/01/26 04:40:29;;;;;;;14.07;9.60;;;5.80;78.30;;;;;;5070467;28;20477;-62
2021/01/26 04:43:18;;;;;;;14.68;9.32;;;5.80;78.20;;;;;;5063870;28;20142;-62
2021/01/26 04:45:47;;;;;;;13.45;10.25;;;5.80;78.10;;;;;;5063808;28;20025;-61
2021/01/26 04:48:20;;;;;;;11.95;9.15;;;5.80;77.80;;;;;;5062109;28;20116;-62
2021/01/26 04:50:48;;;;;;;11.20;8.45;;;5.80;77.30;;;;;;5070843;28;20028;-62
2021/01/26 04:53:46;;;;;;;12.98;9.05;;;5.70;77.20;;;;;;5065483;28;20029;-62
2021/01/26 04:56:42;;;;;;;12.52;8.85;;;5.70;76.90;;;;;;5070268;28;20174;-62
2021/01/26 04:59:20;;;;;;;12.75;8.27;;;5.60;77.30;;;;;;5060674;28;20266;-62
2021/01/26 05:02:25;;;;;;;15.30;9.88;;;5.60;77.50;;;;;;5062711;28;20025;-62
2021/01/26 05:05:02;;;;;;;12.95;9.70;;;5.60;77.10;;;;;;5069232;28;20086;-62
2021/01/26 05:07:35;;;;;;;12.10;8.82;;;5.60;77.10;;;;;;5062045;28;20013;-62
2021/01/26 05:10:23;;;;;;;13.35;8.90;;;5.60;77.30;;;;;;5056335;28;20053;-61
2021/01/26 05:13:17;;;;;;;12.65;8.35;;;5.60;77.10;;;;;;5061651;28;20021;-62
2021/01/26 05:15:46;;;;;;;13.15;8.68;;;5.60;77.10;;;;;;5061795;28;20098;-62
2021/01/26 05:18:33;;;;;;;11.60;8.20;;;5.60;76.90;;;;;;5066813;28;20081;-62
2021/01/26 05:21:12;;;;;;;11.27;7.80;;;5.60;77.10;;;;;;5069309;28;20384;-62
2021/01/26 05:23:47;;;;;;;11.77;8.05;;;5.60;76.80;;;;;;5064914;28;20013;-62
2021/01/26 05:26:13;;;;;;;9.25;6.85;;;5.60;76.20;;;;;;5059447;28;20086;-62
2021/01/26 05:28:44;;;;;;;9.50;7.03;;;5.50;76.10;;;;;;5061711;28;20047;-61
2021/01/26 05:31:14;;;;;;;8.80;5.85;;;5.50;75.70;;;;;;5062205;28;20100;-61
2021/01/26 05:33:44;;;;;;;8.88;6.90;;;5.50;76.10;;;;;;5067719;28;20528;-61
2021/01/26 05:36:11;;;;;;;9.20;6.10;;;5.50;75.50;;;;;;5065736;28;20028;-61
2021/01/26 05:38:37;;;;;;;7.53;5.80;;;5.50;75.40;;;;;;5067095;28;20048;-61
2021/01/26 05:41:06;;;;;;;8.40;6.20;;;5.50;75.20;;;;;;5067122;28;20067;-61
2021/01/26 05:43:34;;;;;;;7.50;5.97;;;5.50;75.00;;;;;;5068854;28;20495;-61
2021/01/26 05:46:05;;;;;;;9.77;6.50;;;5.40;74.90;;;;;;5068410;28;20020;-61
2021/01/26 05:48:46;;;;;;;6.97;5.63;;;5.40;74.40;;;;;;5069824;28;20020;-62
2021/01/26 05:51:32;;;;;;;8.73;6.20;;;5.40;74.90;;;;;;5063573;28;20269;-62
2021/01/26 05:54:19;;;;;;;8.43;6.15;;;5.40;74.90;;;;;;5069324;28;20472;-61
2021/01/26 05:56:55;;;;;;;8.25;5.78;;;5.50;74.80;;;;;;5063550;28;20028;-61
2021/01/26 05:59:33;;;;;;;8.77;6.13;;;5.40;74.80;;;;;;5063287;28;20056;-60
2021/01/26 06:02:20;;;;;;;8.60;6.45;;;5.50;74.90;;;;;;5068396;28;20028;-61
2021/01/26 06:04:46;;;;;;;10.52;6.45;;;5.50;74.70;;;;;;5060396;28;20106;-62
2021/01/26 06:07:38;;;;;;;8.20;5.53;;;5.50;74.80;;;;;;5069442;28;20476;-61
2021/01/26 06:10:19;;;;;;;8.95;5.43;;;5.50;74.10;;;;;;5063386;28;20499;-61
2021/01/26 06:12:55;;;;;;;7.97;5.78;;;5.50;74.10;;;;;;5065401;28;20021;-61
2021/01/26 06:15:30;;;;;;;7.32;5.80;;;5.50;74.00;;;;;;5067766;28;20062;-61
2021/01/26 06:18:14;;;;;;;9.70;6.35;;;5.50;74.30;;;;;;5062057;28;20060;-61
2021/01/26 06:20:41;;;;;;;8.65;6.28;;;5.60;74.20;;;;;;5061165;28;20036;-61
2021/01/26 06:23:35;;;;;;;6.72;4.90;;;5.60;74.40;;;;;;5062567;28;20029;-61
2021/01/26 06:26:12;;;;;;;9.75;6.28;;;5.70;74.10;;;;;;5056500;28;20040;-59
2021/01/26 06:29:19;;;;;;;6.82;5.15;;;5.70;74.20;;;;;;5058781;28;20017;-61
2021/01/26 06:32:32;;;;;;;9.00;6.40;;;5.70;74.00;;;;;;5064464;28;20036;-61
2021/01/26 06:35:10;;;;;;;;;;;5.80;74.40;;;;;;5029285;28;20026;-61
2021/01/26 06:38:03;;;;;;;9.32;6.65;;;5.70;73.40;;;;;;5029798;28;19993;-60
2021/01/26 06:40:45;;;;;;;10.25;7.25;;;5.80;74.40;;;;;;5052461;28;20072;-61
2021/01/26 06:43:20;;;;;;;10.98;7.32;;;5.80;74.00;;;;;;5057506;28;20056;-61
2021/01/26 06:46:23;;;;;;;11.95;8.18;;;5.80;74.20;;;;;;5068133;28;20529;-61
2021/01/26 06:49:20;;;;;;;13.07;7.88;;;5.90;74.20;;;;;;5062219;28;20100;-62
2021/01/26 06:52:16;;;;;;;11.30;8.23;;;5.90;74.30;;;;;;5060237;28;20511;-60
2021/01/26 06:55:04;;;;;;;13.98;9.65;;;6.00;74.60;;;;;;5061232;28;20184;-61
2021/01/26 06:57:52;;;;;;;11.90;8.10;;;6.00;74.30;;;;;;5061229;28;20033;-61
2021/01/26 07:00:44;;;;;;;13.63;9.85;;;6.00;74.40;;;;;;5061601;28;20039;-61
2021/01/26 07:03:38;;;;;;;14.73;9.38;;;6.10;74.10;;;;;;5061616;28;20017;-61
2021/01/26 07:06:31;;;;;;;10.40;7.88;;;6.10;73.80;;;;;;5060218;28;20036;-61
2021/01/26 07:09:15;;;;;;;12.15;8.80;;;6.20;73.90;;;;;;5061133;28;20056;-61
2021/01/26 07:12:02;;;;;;;11.35;7.88;;;6.20;73.40;;;;;;5059909;28;20081;-61
2021/01/26 07:15:00;;;;;;;14.30;8.98;;;6.20;72.80;;;;;;5062830;28;20078;-61
2021/01/26 07:18:07;;;;;;;11.32;8.18;;;6.10;72.40;;;;;;5063418;28;20177;-61
2021/01/26 07:20:55;;;;;;;10.65;7.90;;;6.10;72.90;;;;;;5060256;28;20093;-60
2021/01/26 07:23:43;;;;;;;10.02;7.75;;;6.10;73.20;;;;;;5060617;28;20040;-61
2021/01/26 07:26:30;;;;;;;13.63;8.85;;;6.10;73.30;;;;;;5059316;28;20056;-61
2021/01/26 07:29:23;;;;;;;12.75;9.07;;;6.10;73.50;;;;;;5064969;28;20058;-62
2021/01/26 07:32:09;;;;;;;12.07;7.95;;;6.20;73.50;;;;;;5060130;28;20039;-62
2021/01/26 07:34:43;;;;;;;12.65;9.18;;;6.20;73.40;;;;;;5054606;28;20044;-62
2021/01/26 07:37:08;;;;;;;12.88;9.10;;;6.20;73.30;;;;;;5056615;28;20021;-62
2021/01/26 07:39:46;;;;;;;13.40;8.95;;;6.20;72.90;;;;;;5066610;28;20028;-62
2021/01/26 07:42:28;;;;;;;13.07;9.07;;;6.20;73.20;;;;;;5061197;28;20039;-62
2021/01/26 07:45:21;;;;;;;9.73;7.53;;;6.30;73.20;;;;;;5058967;28;20036;-62
2021/01/26 07:47:54;;;;;;;11.63;7.72;;;6.30;72.60;;;;;;5052582;28;20041;-62
2021/01/26 07:50:33;;;;;;;12.52;9.02;;;6.30;72.70;;;;;;5055640;28;20025;-62
2021/01/26 07:53:02;;;;;;;13.93;9.00;;;6.30;72.30;;;;;;5061427;28;20056;-59
2021/01/26 07:55:45;;;;;;;11.75;8.05;;;6.20;72.60;;;;;;5058222;28;20119;-59
2021/01/26 07:58:12;;;;;;;10.30;7.65;;;6.20;72.50;;;;;;5048755;28;20025;-60
2021/01/26 08:00:45;;;;;;;10.77;8.27;;;6.20;72.30;;;;;;5052456;28;20206;-60
2021/01/26 08:03:11;;;;;;;11.95;8.63;;;6.20;72.00;;;;;;5052675;28;20068;-60
2021/01/26 08:05:49;;;;;;;11.07;7.97;;;6.20;71.90;;;;;;5054608;28;20405;-60
2021/01/26 08:08:35;;;;;;;9.23;7.32;;;6.20;72.00;;;;;;5053729;28;20129;-59
2021/01/26 08:11:22;;;;;;;10.38;7.95;;;6.20;72.10;;;;;;5059526;28;20060;-60
2021/01/26 08:14:09;;;;;;;9.75;6.97;;;6.20;72.20;;;;;;5056112;28;20427;-60
2021/01/26 08:16:45;;;;;;;9.60;6.80;;;6.20;72.40;;;;;;5054828;28;20032;-60
2021/01/26 08:19:35;;;;;;;10.05;7.18;;;6.30;72.00;;;;;;5051683;28;20437;-59
2021/01/26 08:22:29;;;;;;;8.90;6.68;;;6.20;71.40;;;;;;5053156;28;20052;-61
2021/01/26 08:25:06;;;;;;;11.77;6.78;;;6.20;71.30;;;;;;5053214;28;20059;-60
2021/01/26 08:27:38;;;;;;;8.68;6.20;;;6.10;71.70;;;;;;5051703;28;20462;-60
2021/01/26 08:30:10;;;;;;;9.70;6.72;;;6.10;72.20;;;;;;5046958;28;20038;-60
2021/01/26 08:32:35;;;;;;;;;;;6.20;72.20;;;;;;5047672;28;20119;-59
2021/01/26 08:35:11;;;;;;;8.18;5.60;;;6.10;71.30;;;;;;5049089;28;19919;-59
2021/01/26 08:37:43;;;;;;;8.48;5.82;;;6.10;72.40;;;;;;5049659;28;20040;-60
2021/01/26 08:40:40;;;;;;;10.38;6.90;;;6.20;72.10;;;;;;5055332;28;20031;-60
2021/01/26 08:43:08;;;;;;;8.55;6.53;;;6.20;71.70;;;;;;5045246;28;20033;-60
2021/01/26 08:45:33;;;;;;;9.63;6.55;;;6.30;72.20;;;;;;5049823;28;20708;-60
2021/01/26 08:48:24;;;;;;;9.10;6.50;;;6.30;72.20;;;;;;5048348;28;20090;-58
2021/01/26 08:50:53;;;;;;;9.05;6.65;;;6.40;72.20;;;;;;5047832;28;20025;-60
2021/01/26 08:53:28;;;;;;;8.88;6.65;;;6.50;72.20;;;;;;5043830;28;20123;-60
2021/01/26 08:55:59;;;;;;;10.23;7.10;;;6.60;72.20;;;;;;5056827;28;20036;-60
2021/01/26 08:58:43;;;;;;;9.55;6.70;;;6.60;71.80;;;;;;5053479;28;20052;-59
2021/01/26 09:01:25;;;;;;;10.00;6.90;;;6.70;71.40;;;;;;5054335;28;20032;-60
2021/01/26 09:03:57;;;;;;;8.65;6.18;;;6.70;71.00;;;;;;5053075;28;20048;-60
2021/01/26 09:06:42;;;;;;;8.15;5.88;;;6.70;70.80;;;;;;5052087;28;20085;-60
2021/01/26 09:09:29;;;;;;;7.45;5.78;;;6.70;70.50;;;;;;5063242;28;20095;-60
2021/01/26 09:12:10;;;;;;;9.93;6.93;;;6.70;70.50;;;;;;5049191;28;20032;-60
2021/01/26 09:14:46;;;;;;;7.85;5.35;;;6.70;70.60;;;;;;5049028;28;20266;-60
2021/01/26 09:17:12;;;;;;;7.47;5.35;;;6.70;70.70;;;;;;5045632;28;20047;-60
2021/01/26 09:19:48;;;;;;;7.03;5.50;;;6.70;70.50;;;;;;5046857;28;20242;-60
2021/01/26 09:22:19;;;;;;;6.07;4.85;;;6.80;70.00;;;;;;5052399;28;20098;-60
2021/01/26 09:24:46;;;;;;;7.22;5.60;;;6.80;69.90;;;;;;5054026;28;20021;-60
2021/01/26 09:27:28;;;;;;;8.10;5.03;;;6.80;70.00;;;;;;5048185;28;20079;-59
2021/01/26 09:30:20;;;;;;;7.45;5.75;;;6.80;69.70;;;;;;5053657;28;20051;-59
2021/01/26 09:33:06;;;;;;;;;;;6.90;70.20;;;;;;5051083;28;20037;-59
2021/01/26 09:35:39;;;;;;;6.15;4.63;;;6.90;69.60;;;;;;5058236;28;19986;-60
2021/01/26 09:38:25;;;;;;;6.68;4.60;;;7.00;70.20;;;;;;5061390;28;20119;-60
2021/01/26 09:40:58;;;;;;;6.10;4.78;;;7.10;69.90;;;;;;5044119;28;20052;-60
2021/01/26 09:43:39;;;;;;;7.72;4.95;;;7.20;69.50;;;;;;5051219;28;20493;-60
2021/01/26 09:46:07;;;;;;;7.27;4.83;;;7.20;68.80;;;;;;5045878;28;20380;-60
2021/01/26 09:48:51;;;;;;;6.55;5.00;;;7.20;68.90;;;;;;5055000;28;20270;-60
2021/01/26 09:51:24;;;;;;;7.43;4.93;;;7.20;68.30;;;;;;5047954;28;20108;-60
2021/01/26 09:54:00;;;;;;;6.20;4.32;;;7.20;68.00;;;;;;5047521;28;20096;-60
2021/01/26 09:56:26;;;;;;;7.20;5.00;;;7.20;67.90;;;;;;5055046;28;20058;-60
2021/01/26 09:58:53;;;;;;;7.07;5.13;;;7.20;68.10;;;;;;5051662;28;20085;-60
2021/01/26 10:01:21;;;;;;;8.23;5.18;;;7.20;67.90;;;;;;5053331;28;20024;-59
2021/01/26 10:03:52;;;;;;;7.53;4.97;;;7.20;68.00;;;;;;5047248;28;20028;-60
2021/01/26 10:06:19;;;;;;;7.57;5.00;;;7.20;68.00;;;;;;5049897;28;20031;-60
2021/01/26 10:08:44;;;;;;;7.07;4.90;;;7.30;68.20;;;;;;5049674;28;20036;-60
2021/01/26 10:11:19;;;;;;;6.10;4.55;;;7.40;67.50;;;;;;5051229;28;20033;-60
2021/01/26 10:13:47;;;;;;;6.03;4.78;;;7.40;67.70;;;;;;5050964;28;20032;-58
2021/01/26 10:16:38;;;;;;;5.97;4.63;;;7.40;67.70;;;;;;5050142;28;20396;-60
2021/01/26 10:19:11;;;;;;;7.43;5.63;;;7.40;67.50;;;;;;5049100;28;20477;-60
2021/01/26 10:21:37;;;;;;;7.97;6.18;;;7.40;67.60;;;;;;5051999;28;20086;-59
2021/01/26 10:24:21;;;;;;;6.25;4.72;;;7.40;67.10;;;;;;5052013;28;20048;-60
2021/01/26 10:26:47;;;;;;;7.50;5.50;;;7.50;67.20;;;;;;5053123;28;20021;-59
2021/01/26 10:29:22;;;;;;;7.43;5.07;;;7.50;67.10;;;;;;5053640;28;20035;-59
2021/01/26 10:31:57;;;;;;;8.27;5.65;;;7.70;66.90;;;;;;5055111;28;20120;-60
2021/01/26 10:34:23;;;;;;;9.07;6.07;;;7.70;66.60;;;;;;5056316;28;20091;-60
2021/01/26 10:36:49;;;;;;;9.40;6.50;;;7.70;66.70;;;;;;5057857;28;20040;-57
2021/01/26 10:39:29;;;;;;;9.68;7.00;;;7.80;66.30;;;;;;5055664;28;20561;-60
2021/01/26 10:42:23;;;;;;;9.65;6.22;;;7.80;66.10;;;;;;5053670;28;20040;-59
2021/01/26 10:44:54;;;;;;;7.95;5.70;;;7.90;66.20;;;;;;5049988;28;20041;-60
2021/01/26 10:47:38;;;;;;;10.07;6.80;;;7.80;65.70;;;;;;5054592;28;20024;-60
2021/01/26 10:50:13;;;;;;;9.70;6.55;;;7.80;65.70;;;;;;5054439;28;20029;-59
2021/01/26 10:52:38;;;;;;;10.27;6.25;;;7.80;65.30;;;;;;5050754;28;21036;-58
2021/01/26 10:55:06;;;;;;;6.85;6.10;;;7.70;65.60;;;;;;5051198;28;20028;-60
2021/01/26 10:57:32;;;;;;;8.48;5.90;;;7.80;66.00;;;;;;5054035;28;20040;-60
2021/01/26 10:59:57;;;;;;;11.07;6.05;;;7.70;65.50;;;;;;5046415;28;20032;-61
2021/01/26 11:02:23;;;;;;;10.35;6.68;;;7.70;65.50;;;;;;5048515;28;20040;-61
2021/01/26 11:04:49;;;;;;;10.27;5.95;;;7.80;65.70;;;;;;5053028;28;20040;-60
2021/01/26 11:07:15;;;;;;;7.80;5.70;;;7.80;65.60;;;;;;5056777;28;20033;-61
2021/01/26 11:09:40;;;;;;;8.70;5.95;;;7.80;65.10;;;;;;5052286;28;20040;-61
2021/01/26 11:12:06;;;;;;;6.80;5.80;;;7.80;64.80;;;;;;5045605;28;20158;-60
2021/01/26 11:14:32;;;;;;;9.07;5.63;;;7.70;64.40;;;;;;5048590;28;20056;-59
2021/01/26 11:16:58;;;;;;;9.38;5.88;;;7.70;64.60;;;;;;5055754;28;20064;-60
2021/01/26 11:19:26;;;;;;;7.93;5.22;;;7.70;64.80;;;;;;5058827;28;20036;-60
2021/01/26 11:21:52;;;;;;;8.77;5.45;;;7.80;65.10;;;;;;5057600;28;20036;-59
2021/01/26 11:24:18;;;;;;;6.82;5.65;;;7.90;64.80;;;;;;5055619;28;20028;-60
2021/01/26 11:26:43;;;;;;;8.88;5.55;;;7.80;64.50;;;;;;5055444;28;20033;-58
2021/01/26 11:29:09;;;;;;;7.68;5.38;;;7.80;64.60;;;;;;5055101;28;20047;-60
2021/01/26 11:31:35;;;;;;;6.40;4.97;;;7.80;64.60;;;;;;5054359;28;20039;-59
2021/01/26 11:34:01;;;;;;;7.47;5.22;;;7.80;64.40;;;;;;5054894;28;20102;-60
2021/01/26 11:36:26;;;;;;;7.05;4.88;;;7.80;64.30;;;;;;5055658;28;20039;-59
2021/01/26 11:38:52;;;;;;;8.77;4.80;;;7.80;64.30;;;;;;5055819;28;20033;-59
2021/01/26 11:41:18;;;;;;;6.93;4.90;;;7.80;64.10;;;;;;5056675;28;20035;-59
2021/01/26 11:43:43;;;;;;;5.43;4.35;;;7.80;64.20;;;;;;5051984;28;20036;-59
2021/01/26 11:46:09;;;;;;;7.95;5.05;;;7.70;64.10;;;;;;5054183;28;20028;-59
2021/01/26 11:48:35;;;;;;;6.00;4.88;;;7.80;64.30;;;;;;5055378;28;20523;-59
2021/01/26 11:51:02;;;;;;;6.30;4.40;;;7.80;64.20;;;;;;5056774;28;20025;-59
2021/01/26 11:53:27;;;;;;;6.28;4.57;;;7.80;63.70;;;;;;5056977;28;20550;-59
2021/01/26 11:55:57;;;;;;;4.60;3.83;;;7.70;63.50;;;;;;5055579;28;20037;-59
2021/01/26 11:58:23;;;;;;;6.60;4.38;;;7.70;63.60;;;;;;5051508;28;20036;-59
2021/01/26 12:00:48;;;;;;;6.00;4.78;;;7.70;63.80;;;;;;5057311;28;20078;-59
2021/01/26 12:03:14;;;;;;;5.75;4.45;;;7.70;63.90;;;;;;5055957;28;20052;-60
2021/01/26 12:05:41;;;;;;;6.57;4.85;;;7.70;64.20;;;;;;5054595;28;20029;-58
2021/01/26 12:08:09;;;;;;;7.28;5.18;;;7.70;64.30;;;;;;5055780;28;20036;-61
2021/01/26 12:10:36;;;;;;;7.13;5.00;;;7.70;63.80;;;;;;5039003;28;20060;-57
2021/01/26 12:13:02;;;;;;;6.43;4.82;;;7.70;63.60;;;;;;5050716;28;20496;-59
2021/01/26 12:15:33;;;;;;;6.10;4.32;;;7.70;63.60;;;;;;5051005;28;20036;-60
2021/01/26 12:17:59;;;;;;;5.95;4.20;;;7.70;63.50;;;;;;5047623;28;20025;-59
2021/01/26 12:20:27;;;;;;;5.95;4.28;;;7.60;63.50;;;;;;5051680;28;20492;-61
2021/01/26 12:22:53;;;;;;;5.43;4.45;;;7.60;63.50;;;;;;5067136;28;20033;-59
2021/01/26 12:25:20;;;;;;;6.85;4.65;;;7.60;63.50;;;;;;5052982;28;20047;-61
2021/01/26 12:27:47;;;;;;;9.32;4.50;;;7.60;63.40;;;;;;5046800;28;20862;-59
2021/01/26 12:30:14;;;;;;;4.72;3.70;;;7.60;63.30;;;;;;5044868;28;20032;-61
2021/01/26 12:32:40;;;;;;;5.65;3.90;;;7.60;63.30;;;;;;5051562;28;20059;-59
2021/01/26 12:35:10;;;;;;;5.15;4.05;;;7.60;63.20;;;;;;5048430;28;20052;-62
2021/01/26 12:37:36;;;;;;;5.45;4.30;;;7.50;63.10;;;;;;5053915;28;20033;-61
2021/01/26 12:40:02;;;;;;;5.97;3.90;;;7.50;63.00;;;;;;5054076;28;20044;-61
2021/01/26 12:42:28;;;;;;;4.28;3.67;;;7.40;63.00;;;;;;5053641;28;20465;-62
2021/01/26 12:44:53;;;;;;;4.82;3.70;;;7.40;63.00;;;;;;5052709;28;20049;-61
2021/01/26 12:47:19;;;;;;;5.45;3.90;;;7.40;63.00;;;;;;5047762;28;20020;-61
2021/01/26 12:49:45;;;;;;;5.22;3.80;;;7.30;63.30;;;;;;5044024;28;20037;-62
2021/01/26 12:52:11;;;;;;;5.82;4.10;;;7.30;63.00;;;;;;5047567;28;20037;-62
2021/01/26 12:54:36;;;;;;;5.38;3.95;;;7.30;63.00;;;;;;5051108;28;20024;-63
2021/01/26 12:57:02;;;;;;;5.45;3.90;;;7.30;63.40;;;;;;5047129;28;20116;-62
2021/01/26 12:59:28;;;;;;;7.32;5.05;;;7.30;63.60;;;;;;5044015;28;20032;-61
2021/01/26 13:01:54;;;;;;;6.80;4.10;;;7.30;63.70;;;;;;5051239;28;20033;-61
2021/01/26 13:04:19;;;;;;;6.07;4.50;;;7.40;63.60;;;;;;5049633;28;20043;-62
2021/01/26 13:06:45;;;;;;;5.43;3.80;;;7.40;63.70;;;;;;5055717;28;20033;-61
2021/01/26 13:09:11;;;;;;;5.18;4.07;;;7.40;63.30;;;;;;5051759;28;20385;-62
2021/01/26 13:11:36;;;;;;;5.57;4.32;;;7.40;63.50;;;;;;5051362;28;20484;-63
2021/01/26 13:14:02;;;;;;;6.03;4.20;;;7.40;63.40;;;;;;5054365;28;20024;-63
2021/01/26 13:16:28;;;;;;;7.95;4.22;;;7.40;63.30;;;;;;5056407;28;20103;-61
2021/01/26 13:18:54;;;;;;;6.10;4.28;;;7.30;63.40;;;;;;5053130;28;20809;-60
2021/01/26 13:21:20;;;;;;;4.55;3.75;;;7.30;63.50;;;;;;5047809;28;20044;-60
2021/01/26 13:23:45;;;;;;;5.60;4.10;;;7.30;63.30;;;;;;5049013;28;20040;-59
2021/01/26 13:26:11;;;;;;;4.68;4.15;;;7.20;63.40;;;;;;5048546;28;20021;-61
2021/01/26 13:28:37;;;;;;;6.60;4.68;;;7.20;63.60;;;;;;5048818;28;20067;-61
2021/01/26 13:31:03;;;;;;;6.00;4.50;;;7.20;64.00;;;;;;5051512;28;20021;-60
2021/01/26 13:33:29;;;;;;;6.20;4.72;;;7.30;63.90;;;;;;5045590;28;20017;-63